Terminal Aerodrome Forecast
Issued by NWS Cleveland, OH

Home | Current Version | Previous Version | Text Only | Print | Product List | Glossary Off
Versions: 1 2 3 4 5 6 7 8 9 10 11 12

000
FTUS41 KCLE 251200 AAA
TAFTOL
TAF AMD
KTOL 251246Z 2513/2612 25015G22KT P6SM SCT012 OVC025
      TEMPO 2513/2516 6SM -SHRA OVC012
     FM252200 22008KT P6SM OVC022
     FM260200 21008KT P6SM BKN250=

USA.gov is the U.S. government's official web portal to all federal, state and local government web resources and services.